Time;durP1;ratioP1;P1;durP2;ratioP2;P2;SDS_P1;SDS_P2;PMS_P1;PMS_P2;Temp;Humidity;BMP_temperature;BMP_pressure;BME280_temperature;BME280_humidity;BME280_pressure;Samples;Min_cycle;Max_cycle;Signal;HPM_P1;HPM_P2
2022/09/06 00:00:44;;;;;;;5.57;1.40;;;;;;;;;;4994976;28;20089;-68
2022/09/06 00:03:11;;;;;;;5.85;1.70;;;;;;;;;;4995035;28;20030;-68
2022/09/06 00:05:40;;;;;;;5.60;1.23;;;;;;;;;;4994679;28;20057;-67
2022/09/06 00:08:07;;;;;;;6.97;1.38;;;;;;;;;;4996240;28;20022;-69
2022/09/06 00:10:36;;;;;;;6.30;1.20;;;;;;;;;;4995812;28;20019;-67
2022/09/06 00:13:07;;;;;;;5.55;1.38;;;;;;;;;;4994870;28;20034;-68
2022/09/06 00:15:35;;;;;;;4.60;1.25;;;;;;;;;;4994863;28;20487;-69
2022/09/06 00:18:03;;;;;;;5.22;1.40;;;;;;;;;;4994724;28;20490;-68
2022/09/06 00:20:31;;;;;;;6.88;1.70;;;;;;;;;;4996035;28;20114;-68
2022/09/06 00:23:02;;;;;;;6.78;1.65;;;;;;;;;;4995826;28;20028;-68
2022/09/06 00:25:30;;;;;;;7.47;1.42;;;;;;;;;;4995971;28;20100;-68
2022/09/06 00:27:57;;;;;;;8.60;1.75;;;;;;;;;;4995736;28;20022;-68
2022/09/06 00:30:25;;;;;;;9.07;1.63;;;;;;;;;;4994610;28;20036;-68
2022/09/06 00:32:54;;;;;;;10.35;2.17;;;;;;;;;;4995692;28;20093;-68
2022/09/06 00:35:23;;;;;;;10.30;1.95;;;;;;;;;;4995697;28;20062;-68
2022/09/06 00:37:51;;;;;;;7.35;1.42;;;;;;;;;;4994357;28;20061;-68
2022/09/06 00:40:18;;;;;;;8.57;1.40;;;;;;;;;;4995651;28;20033;-67
2022/09/06 00:42:45;;;;;;;7.70;1.42;;;;;;;;;;4994135;28;20045;-67
2022/09/06 00:45:13;;;;;;;4.13;0.80;;;;;;;;;;4995760;28;20046;-67
2022/09/06 00:47:41;;;;;;;4.20;0.77;;;;;;;;;;4995416;28;20026;-67
2022/09/06 00:50:09;;;;;;;5.43;0.85;;;;;;;;;;4995727;28;20545;-67
2022/09/06 00:52:37;;;;;;;9.40;0.98;;;;;;;;;;4995326;28;20026;-68
2022/09/06 00:55:04;;;;;;;3.17;0.88;;;;;;;;;;4995375;28;20026;-67
2022/09/06 00:57:31;;;;;;;4.32;0.90;;;;;;;;;;4995203;28;20037;-67
2022/09/06 00:59:59;;;;;;;7.13;1.63;;;;;;;;;;4995233;28;20027;-67
2022/09/06 01:02:27;;;;;;;8.05;2.03;;;;;;;;;;4995193;28;20495;-67
2022/09/06 01:04:54;;;;;;;10.15;1.40;;;;;;;;;;4993683;28;20360;-68
2022/09/06 01:07:31;;;;;;;6.05;1.25;;;;;;;;;;4993840;28;20117;-67
2022/09/06 01:09:58;;;;;;;6.70;1.42;;;;;;;;;;4995015;28;20026;-68
2022/09/06 01:12:26;;;;;;;6.95;1.00;;;;;;;;;;4994874;28;20018;-68
2022/09/06 01:14:59;;;;;;;5.47;0.98;;;;;;;;;;4993351;28;20433;-68
2022/09/06 01:17:26;;;;;;;4.65;1.00;;;;;;;;;;4993838;28;20022;-68
2022/09/06 01:19:53;;;;;;;4.85;1.02;;;;;;;;;;4994470;28;20026;-68
2022/09/06 01:22:20;;;;;;;7.65;1.50;;;;;;;;;;4992495;28;20035;-68
2022/09/06 01:24:50;;;;;;;6.80;1.33;;;;;;;;;;4994254;28;20082;-68
2022/09/06 01:27:21;;;;;;;11.65;1.42;;;;;;;;;;4994584;28;20018;-68
2022/09/06 01:30:00;;;;;;;5.25;1.13;;;;;;;;;;4993544;28;20545;-68
2022/09/06 01:32:27;;;;;;;8.20;1.73;;;;;;;;;;4994776;28;20030;-68
2022/09/06 01:34:58;;;;;;;5.25;0.90;;;;;;;;;;4994728;28;20031;-68
2022/09/06 01:37:26;;;;;;;3.63;0.70;;;;;;;;;;4994735;28;20034;-68
2022/09/06 01:39:53;;;;;;;5.13;0.98;;;;;;;;;;4994515;28;20042;-68
2022/09/06 01:42:25;;;;;;;6.85;1.00;;;;;;;;;;4994431;28;20066;-68
2022/09/06 01:44:54;;;;;;;7.18;1.13;;;;;;;;;;4994474;28;20050;-68
2022/09/06 01:47:34;;;;;;;7.32;1.00;;;;;;;;;;4994288;28;20026;-68
2022/09/06 01:50:23;;;;;;;3.22;0.70;;;;;;;;;;4994176;28;20471;-68
2022/09/06 01:53:01;;;;;;;3.17;0.88;;;;;;;;;;4994578;28;20018;-68
2022/09/06 01:55:29;;;;;;;3.78;1.10;;;;;;;;;;4994480;28;20383;-68
2022/09/06 01:58:01;;;;;;;3.08;1.20;;;;;;;;;;4994228;28;20018;-67
2022/09/06 02:00:29;;;;;;;5.40;1.15;;;;;;;;;;4994221;28;20077;-68
2022/09/06 02:03:05;;;;;;;5.93;1.00;;;;;;;;;;4992778;28;20029;-68
2022/09/06 02:05:35;;;;;;;4.03;0.82;;;;;;;;;;4992239;28;20142;-67
2022/09/06 02:08:07;;;;;;;4.32;0.90;;;;;;;;;;4992625;28;20080;-68
2022/09/06 02:10:38;;;;;;;3.70;0.50;;;;;;;;;;4994170;28;20019;-68
2022/09/06 02:13:07;;;;;;;3.45;0.80;;;;;;;;;;4994062;28;20026;-68
2022/09/06 02:15:35;;;;;;;3.67;0.75;;;;;;;;;;4993196;28;20026;-67
2022/09/06 02:18:09;;;;;;;7.75;0.95;;;;;;;;;;4992558;28;20398;-67
2022/09/06 02:20:38;;;;;;;3.83;0.80;;;;;;;;;;4993938;28;20034;-67
2022/09/06 02:23:07;;;;;;;4.07;0.95;;;;;;;;;;4994018;28;20037;-67
2022/09/06 02:25:37;;;;;;;7.05;0.82;;;;;;;;;;4993679;28;20501;-68
2022/09/06 02:28:05;;;;;;;4.55;0.93;;;;;;;;;;4992520;28;20061;-67
2022/09/06 02:30:35;;;;;;;3.47;0.60;;;;;;;;;;4993912;28;20046;-67
2022/09/06 02:33:04;;;;;;;4.43;1.00;;;;;;;;;;4993728;28;20022;-67
2022/09/06 02:35:32;;;;;;;4.68;0.82;;;;;;;;;;4993622;28;20105;-67
2022/09/06 02:37:59;;;;;;;9.80;1.02;;;;;;;;;;4993688;28;20372;-68
2022/09/06 02:40:26;;;;;;;2.05;0.50;;;;;;;;;;4993541;28;20053;-68
2022/09/06 02:42:53;;;;;;;3.38;0.50;;;;;;;;;;4993655;28;20034;-67
2022/09/06 02:45:20;;;;;;;2.72;0.55;;;;;;;;;;4993428;28;20033;-68
2022/09/06 02:47:47;;;;;;;2.50;0.68;;;;;;;;;;4993859;28;20018;-68
2022/09/06 02:50:14;;;;;;;2.65;0.55;;;;;;;;;;4993412;28;20411;-67
2022/09/06 02:52:42;;;;;;;2.67;0.50;;;;;;;;;;4993595;28;20479;-67
2022/09/06 02:55:10;;;;;;;4.07;1.08;;;;;;;;;;4993377;28;20399;-67
2022/09/06 02:57:37;;;;;;;4.88;0.73;;;;;;;;;;4992216;28;20033;-67
2022/09/06 03:00:04;;;;;;;3.67;0.70;;;;;;;;;;4993387;28;20018;-67
2022/09/06 03:02:31;;;;;;;2.65;0.70;;;;;;;;;;4993318;28;20038;-67
2022/09/06 03:04:58;;;;;;;5.72;0.80;;;;;;;;;;4993121;28;20108;-67
2022/09/06 03:07:26;;;;;;;2.35;0.70;;;;;;;;;;4993287;28;20034;-67
2022/09/06 03:09:55;;;;;;;3.13;0.70;;;;;;;;;;4993346;28;20030;-67
2022/09/06 03:12:22;;;;;;;2.38;0.60;;;;;;;;;;4993198;28;20034;-69
2022/09/06 03:14:49;;;;;;;3.70;0.70;;;;;;;;;;4993335;28;20022;-68
2022/09/06 03:17:17;;;;;;;3.30;0.60;;;;;;;;;;4993218;28;20498;-68
2022/09/06 03:19:45;;;;;;;3.47;0.65;;;;;;;;;;4993266;28;20449;-67
2022/09/06 03:22:12;;;;;;;6.32;0.80;;;;;;;;;;4993032;28;20052;-67
2022/09/06 03:24:39;;;;;;;4.15;0.63;;;;;;;;;;4993157;28;20077;-67
2022/09/06 03:27:06;;;;;;;5.47;1.00;;;;;;;;;;4991859;28;20092;-68
2022/09/06 03:29:33;;;;;;;4.85;0.63;;;;;;;;;;4993164;28;20022;-68
2022/09/06 03:32:01;;;;;;;4.15;0.52;;;;;;;;;;4993050;28;20478;-67
2022/09/06 03:34:28;;;;;;;4.28;0.82;;;;;;;;;;4993160;28;20022;-68
2022/09/06 03:36:55;;;;;;;2.78;0.82;;;;;;;;;;4993012;28;20394;-68
2022/09/06 03:39:22;;;;;;;4.30;0.60;;;;;;;;;;4993165;28;20026;-68
2022/09/06 03:41:49;;;;;;;6.63;1.08;;;;;;;;;;4991591;28;20471;-68
2022/09/06 03:44:16;;;;;;;2.58;0.60;;;;;;;;;;4993006;28;20026;-68
2022/09/06 03:46:43;;;;;;;4.50;0.60;;;;;;;;;;4994955;28;20386;-68
2022/09/06 03:49:10;;;;;;;1.85;0.50;;;;;;;;;;4996576;28;20026;-68
2022/09/06 03:51:37;;;;;;;2.13;0.40;;;;;;;;;;4996481;28;20030;-67
2022/09/06 03:54:05;;;;;;;2.50;0.63;;;;;;;;;;4996633;28;20550;-67
2022/09/06 03:56:32;;;;;;;3.40;0.75;;;;;;;;;;4996369;28;20042;-68
2022/09/06 03:58:59;;;;;;;2.55;0.40;;;;;;;;;;4996288;28;20054;-68
2022/09/06 04:01:26;;;;;;;2.05;0.60;;;;;;;;;;4995032;28;20505;-67
2022/09/06 04:03:53;;;;;;;3.63;0.60;;;;;;;;;;4996087;28;20426;-68
2022/09/06 04:06:21;;;;;;;5.18;0.70;;;;;;;;;;4995965;28;20047;-67
2022/09/06 04:08:48;;;;;;;4.68;0.60;;;;;;;;;;4996444;28;20018;-67
2022/09/06 04:11:15;;;;;;;3.42;0.50;;;;;;;;;;4996219;28;20022;-68
2022/09/06 04:13:42;;;;;;;4.40;0.60;;;;;;;;;;4996124;28;20502;-67
2022/09/06 04:16:09;;;;;;;2.92;0.68;;;;;;;;;;4996131;28;20030;-67
2022/09/06 04:18:36;;;;;;;2.83;0.75;;;;;;;;;;4994626;28;20038;-68
2022/09/06 04:21:03;;;;;;;3.50;0.82;;;;;;;;;;4996084;28;20546;-67
2022/09/06 04:23:31;;;;;;;6.65;1.00;;;;;;;;;;4995889;28;20073;-67
2022/09/06 04:25:58;;;;;;;3.75;0.77;;;;;;;;;;4995945;28;20014;-67
2022/09/06 04:28:26;;;;;;;3.30;0.65;;;;;;;;;;4994421;28;20031;-68
2022/09/06 04:30:58;;;;;;;3.22;0.70;;;;;;;;;;4995868;28;20030;-68
2022/09/06 04:33:26;;;;;;;3.15;0.77;;;;;;;;;;4995987;28;20506;-67
2022/09/06 04:35:55;;;;;;;1.98;0.40;;;;;;;;;;4994422;28;20030;-67
2022/09/06 04:38:23;;;;;;;4.38;0.60;;;;;;;;;;4995667;28;20507;-68
2022/09/06 04:40:50;;;;;;;3.80;0.60;;;;;;;;;;4995858;28;20033;-67
2022/09/06 04:43:17;;;;;;;4.97;0.70;;;;;;;;;;4995685;28;20106;-67
2022/09/06 04:45:45;;;;;;;3.38;0.70;;;;;;;;;;4995595;28;20097;-70
2022/09/06 04:48:12;;;;;;;4.07;0.50;;;;;;;;;;4994082;28;20435;-68
2022/09/06 04:50:39;;;;;;;2.55;0.40;;;;;;;;;;4995451;28;20094;-68
2022/09/06 04:53:06;;;;;;;4.45;0.75;;;;;;;;;;4995386;28;20060;-67
2022/09/06 04:55:34;;;;;;;2.95;0.47;;;;;;;;;;4995614;28;20022;-68
2022/09/06 04:58:02;;;;;;;4.72;0.65;;;;;;;;;;4994530;28;20375;-67
2022/09/06 05:00:30;;;;;;;2.17;0.60;;;;;;;;;;4993937;28;20027;-67
2022/09/06 05:02:58;;;;;;;3.97;0.75;;;;;;;;;;4995344;28;20076;-67
2022/09/06 05:05:25;;;;;;;3.92;0.52;;;;;;;;;;4995038;28;20050;-67
2022/09/06 05:07:53;;;;;;;3.15;0.38;;;;;;;;;;4995552;28;20038;-68
2022/09/06 05:10:20;;;;;;;2.20;0.60;;;;;;;;;;4995338;28;20026;-67
2022/09/06 05:12:51;;;;;;;2.20;0.55;;;;;;;;;;4995136;28;20022;-67
2022/09/06 05:15:19;;;;;;;2.63;0.60;;;;;;;;;;4993606;28;20109;-67
2022/09/06 05:17:46;;;;;;;1.65;0.50;;;;;;;;;;4994848;28;20102;-67
2022/09/06 05:20:13;;;;;;;1.75;0.43;;;;;;;;;;4993556;28;20030;-67
2022/09/06 05:22:40;;;;;;;1.85;0.47;;;;;;;;;;4994788;28;20483;-67
2022/09/06 05:25:08;;;;;;;3.05;0.30;;;;;;;;;;4994764;28;20382;-67
2022/09/06 05:27:36;;;;;;;3.08;0.40;;;;;;;;;;4994909;28;20502;-68
2022/09/06 05:30:03;;;;;;;5.68;1.17;;;;;;;;;;4994846;28;20026;-67
2022/09/06 05:32:30;;;;;;;2.55;0.40;;;;;;;;;;4993402;28;20506;-67
2022/09/06 05:34:57;;;;;;;2.67;0.70;;;;;;;;;;4994535;28;20030;-67
2022/09/06 05:37:25;;;;;;;1.92;0.40;;;;;;;;;;4994511;28;20566;-69
2022/09/06 05:39:52;;;;;;;1.67;0.30;;;;;;;;;;4993191;28;20037;-67
2022/09/06 05:42:19;;;;;;;2.97;0.40;;;;;;;;;;4994523;28;20479;-67
2022/09/06 05:44:46;;;;;;;2.65;0.43;;;;;;;;;;4994312;28;20029;-67
2022/09/06 05:47:13;;;;;;;2.45;0.40;;;;;;;;;;4994429;28;20025;-67
2022/09/06 05:49:40;;;;;;;3.10;0.50;;;;;;;;;;4993087;28;20164;-68
2022/09/06 05:52:07;;;;;;;2.58;0.40;;;;;;;;;;4993045;28;20030;-68
2022/09/06 05:54:34;;;;;;;1.90;0.50;;;;;;;;;;4992917;28;20052;-68
2022/09/06 05:57:02;;;;;;;3.67;0.47;;;;;;;;;;4994397;28;20030;-67
2022/09/06 05:59:29;;;;;;;3.92;0.40;;;;;;;;;;4994242;28;20112;-67
2022/09/06 06:01:56;;;;;;;3.10;0.60;;;;;;;;;;4994098;28;20033;-68
2022/09/06 06:04:23;;;;;;;2.10;0.47;;;;;;;;;;4993889;28;20033;-68
2022/09/06 06:06:50;;;;;;;2.38;0.50;;;;;;;;;;4993873;28;20047;-68
2022/09/06 06:09:17;;;;;;;4.43;0.60;;;;;;;;;;4993879;28;20026;-68
2022/09/06 06:11:44;;;;;;;3.28;0.40;;;;;;;;;;4994093;28;20101;-68
2022/09/06 06:14:12;;;;;;;1.40;0.40;;;;;;;;;;4993914;28;20352;-67
2022/09/06 06:16:39;;;;;;;3.25;0.55;;;;;;;;;;4993818;28;20449;-68
2022/09/06 06:19:06;;;;;;;2.38;0.50;;;;;;;;;;4994189;28;20386;-67
2022/09/06 06:21:33;;;;;;;1.83;0.30;;;;;;;;;;4993692;28;20057;-67
2022/09/06 06:24:02;;;;;;;2.03;0.40;;;;;;;;;;4993761;28;20033;-68
2022/09/06 06:26:30;;;;;;;2.92;0.30;;;;;;;;;;4993594;28;20089;-68
2022/09/06 06:29:00;;;;;;;2.95;0.45;;;;;;;;;;4993684;28;20033;-67
2022/09/06 06:31:31;;;;;;;2.78;0.47;;;;;;;;;;4993642;28;20020;-67
2022/09/06 06:34:01;;;;;;;4.03;0.50;;;;;;;;;;4992420;28;20026;-67
2022/09/06 06:36:30;;;;;;;3.05;0.30;;;;;;;;;;4993562;28;20026;-67
2022/09/06 06:38:58;;;;;;;3.88;0.75;;;;;;;;;;4993629;28;20060;-67
2022/09/06 06:41:25;;;;;;;3.17;0.40;;;;;;;;;;4993299;28;20153;-67
2022/09/06 06:43:53;;;;;;;3.22;0.30;;;;;;;;;;4993774;28;20061;-68
2022/09/06 06:46:21;;;;;;;3.53;0.50;;;;;;;;;;4992177;28;20043;-68
2022/09/06 06:48:49;;;;;;;4.07;0.60;;;;;;;;;;4993560;28;20025;-68
2022/09/06 06:51:19;;;;;;;2.38;0.43;;;;;;;;;;4993599;28;20023;-70
2022/09/06 06:53:47;;;;;;;3.13;0.60;;;;;;;;;;4993566;28;20033;-67
2022/09/06 06:56:19;;;;;;;2.40;0.50;;;;;;;;;;4993593;28;20022;-67
2022/09/06 06:58:47;;;;;;;3.05;0.60;;;;;;;;;;4992207;28;20486;-67
2022/09/06 07:01:15;;;;;;;2.08;0.40;;;;;;;;;;4993402;28;20023;-67
2022/09/06 07:03:42;;;;;;;4.13;0.30;;;;;;;;;;4993075;28;20487;-67
2022/09/06 07:06:10;;;;;;;2.47;0.40;;;;;;;;;;4992781;28;20039;-68
2022/09/06 07:08:37;;;;;;;1.63;0.52;;;;;;;;;;4991939;28;20368;-69
2022/09/06 07:11:05;;;;;;;2.58;0.52;;;;;;;;;;4993284;28;20050;-67
2022/09/06 07:13:33;;;;;;;3.42;0.60;;;;;;;;;;4993070;28;20022;-67
2022/09/06 07:16:07;;;;;;;5.32;0.98;;;;;;;;;;4991891;28;20402;-68
2022/09/06 07:18:36;;;;;;;2.47;0.60;;;;;;;;;;4993011;28;20069;-68
2022/09/06 07:21:03;;;;;;;2.92;0.75;;;;;;;;;;4993421;28;20149;-68
2022/09/06 07:23:31;;;;;;;2.10;0.55;;;;;;;;;;4996862;28;20019;-67
2022/09/06 07:25:58;;;;;;;3.78;0.63;;;;;;;;;;4996981;28;20022;-67
2022/09/06 07:28:25;;;;;;;3.17;0.50;;;;;;;;;;4996851;28;20027;-69
2022/09/06 07:30:56;;;;;;;2.50;0.55;;;;;;;;;;4996891;28;20561;-69
2022/09/06 07:33:23;;;;;;;3.83;0.70;;;;;;;;;;4996869;28;20390;-68
2022/09/06 07:35:57;;;;;;;3.55;0.60;;;;;;;;;;4996691;28;20360;-68
2022/09/06 07:38:25;;;;;;;2.45;0.70;;;;;;;;;;4996591;28;20023;-69
2022/09/06 07:40:56;;;;;;;1.75;0.63;;;;;;;;;;4996134;28;20030;-70
2022/09/06 07:43:24;;;;;;;1.40;0.50;;;;;;;;;;4995184;28;20054;-70
2022/09/06 07:46:01;;;;;;;2.83;0.60;;;;;;;;;;4993698;28;20036;-69
2022/09/06 07:48:30;;;;;;;7.10;1.42;;;;;;;;;;4994802;28;20446;-69
2022/09/06 07:51:03;;;;;;;3.97;1.08;;;;;;;;;;4996434;28;20101;-69
2022/09/06 07:53:30;;;;;;;3.50;0.70;;;;;;;;;;4995791;28;20034;-69
2022/09/06 07:55:57;;;;;;;4.50;0.68;;;;;;;;;;4995307;28;20026;-69
2022/09/06 07:58:24;;;;;;;3.30;0.60;;;;;;;;;;4996569;28;20030;-69
2022/09/06 08:00:51;;;;;;;2.03;0.60;;;;;;;;;;4996445;28;20113;-69
2022/09/06 08:03:18;;;;;;;3.90;0.52;;;;;;;;;;4996104;28;20026;-69
2022/09/06 08:05:49;;;;;;;1.83;0.50;;;;;;;;;;4995300;28;20041;-69
2022/09/06 08:08:16;;;;;;;2.15;0.65;;;;;;;;;;4996442;28;20023;-69
2022/09/06 08:10:43;;;;;;;2.88;0.75;;;;;;;;;;4996179;28;20026;-69
2022/09/06 08:13:10;;;;;;;3.35;0.60;;;;;;;;;;4995265;28;20022;-69
2022/09/06 08:15:37;;;;;;;3.33;0.85;;;;;;;;;;4994201;28;20048;-69
2022/09/06 08:18:04;;;;;;;3.05;0.60;;;;;;;;;;4994209;28;20029;-69
2022/09/06 08:20:31;;;;;;;2.28;0.85;;;;;;;;;;4994083;28;20113;-70
2022/09/06 08:22:59;;;;;;;9.00;1.33;;;;;;;;;;4994234;28;20029;-69
2022/09/06 08:25:26;;;;;;;3.70;0.90;;;;;;;;;;4993973;28;20030;-69
2022/09/06 08:27:53;;;;;;;3.58;0.80;;;;;;;;;;4994571;28;20026;-69
2022/09/06 08:30:20;;;;;;;2.75;1.08;;;;;;;;;;4995698;28;20096;-70
2022/09/06 08:32:47;;;;;;;2.00;0.88;;;;;;;;;;4994649;28;20030;-69
2022/09/06 08:35:14;;;;;;;3.90;1.20;;;;;;;;;;4995863;28;20022;-67
2022/09/06 08:37:42;;;;;;;3.10;0.50;;;;;;;;;;4995776;28;20109;-67
2022/09/06 08:40:09;;;;;;;2.38;0.47;;;;;;;;;;4995807;28;20509;-68
2022/09/06 08:42:40;;;;;;;3.00;0.70;;;;;;;;;;4995570;28;20390;-67
2022/09/06 08:45:11;;;;;;;2.95;0.60;;;;;;;;;;4995998;28;20463;-68
2022/09/06 08:47:38;;;;;;;2.65;0.70;;;;;;;;;;4995974;28;20042;-68
2022/09/06 08:50:09;;;;;;;3.08;0.65;;;;;;;;;;4994294;28;20076;-68
2022/09/06 08:52:48;;;;;;;1.88;0.70;;;;;;;;;;4993353;28;20057;-68
2022/09/06 08:55:15;;;;;;;4.15;0.70;;;;;;;;;;4994283;28;20121;-68
2022/09/06 08:57:42;;;;;;;3.72;1.60;;;;;;;;;;4995440;28;20027;-69
2022/09/06 09:00:11;;;;;;;4.57;1.77;;;;;;;;;;4995459;28;20033;-69
2022/09/06 09:02:42;;;;;;;5.20;1.65;;;;;;;;;;4995304;28;20447;-69
2022/09/06 09:05:13;;;;;;;3.58;1.13;;;;;;;;;;4993864;28;20495;-69
2022/09/06 09:07:40;;;;;;;4.78;0.80;;;;;;;;;;4994041;28;20050;-69
2022/09/06 09:10:20;;;;;;;4.03;0.80;;;;;;;;;;4995123;28;20019;-68
2022/09/06 09:12:48;;;;;;;4.20;0.80;;;;;;;;;;4995429;28;20018;-68
2022/09/06 09:15:17;;;;;;;3.40;0.60;;;;;;;;;;4993764;28;20039;-69
2022/09/06 09:17:45;;;;;;;6.00;0.90;;;;;;;;;;4994981;28;20030;-68
2022/09/06 09:20:12;;;;;;;3.60;0.73;;;;;;;;;;4993668;28;20038;-68
2022/09/06 09:22:40;;;;;;;4.53;0.70;;;;;;;;;;4994926;28;20463;-67
2022/09/06 09:25:08;;;;;;;5.90;1.27;;;;;;;;;;4994938;28;20048;-67
2022/09/06 09:27:36;;;;;;;3.20;0.90;;;;;;;;;;4993574;28;20057;-67
2022/09/06 09:30:05;;;;;;;3.13;0.98;;;;;;;;;;4994837;28;20394;-67
2022/09/06 09:32:37;;;;;;;1.98;0.70;;;;;;;;;;4994780;28;20112;-67
2022/09/06 09:35:23;;;;;;;5.15;1.10;;;;;;;;;;4994569;28;20033;-67
2022/09/06 09:38:01;;;;;;;4.88;0.98;;;;;;;;;;4995019;28;20026;-68
2022/09/06 09:40:30;;;;;;;3.88;0.90;;;;;;;;;;4994793;28;20061;-67
2022/09/06 09:43:08;;;;;;;3.13;1.27;;;;;;;;;;4994398;28;20034;-67
2022/09/06 09:45:36;;;;;;;4.63;1.65;;;;;;;;;;4992979;28;20023;-68
2022/09/06 09:48:29;;;;;;;3.40;1.30;;;;;;;;;;4994471;28;20022;-68
2022/09/06 09:50:56;;;;;;;5.95;1.85;;;;;;;;;;4993349;28;20407;-68
2022/09/06 09:53:24;;;;;;;4.93;1.70;;;;;;;;;;4993987;28;20033;-68
2022/09/06 09:55:56;;;;;;;4.25;1.45;;;;;;;;;;4994011;28;20023;-68
2022/09/06 09:58:29;;;;;;;3.75;1.52;;;;;;;;;;4994005;28;20390;-69
2022/09/06 10:01:14;;;;;;;3.75;1.25;;;;;;;;;;4992959;28;20482;-69
2022/09/06 10:03:41;;;;;;;4.95;1.63;;;;;;;;;;4994102;28;20022;-69
2022/09/06 10:06:11;;;;;;;4.18;1.40;;;;;;;;;;4994022;28;20053;-69
2022/09/06 10:08:41;;;;;;;5.33;2.33;;;;;;;;;;4994421;28;20026;-70
2022/09/06 10:11:12;;;;;;;3.85;1.38;;;;;;;;;;4992633;28;20264;-69
2022/09/06 10:13:41;;;;;;;7.47;1.77;;;;;;;;;;4992930;28;20026;-68
2022/09/06 10:16:09;;;;;;;6.95;2.03;;;;;;;;;;4993480;28;20037;-69
2022/09/06 10:18:38;;;;;;;5.15;1.92;;;;;;;;;;4993355;28;20019;-69
2022/09/06 10:21:07;;;;;;;6.28;1.52;;;;;;;;;;4993153;28;20030;-69
2022/09/06 10:24:03;;;;;;;5.50;1.98;;;;;;;;;;4990711;28;20105;-69
2022/09/06 10:26:33;;;;;;;4.22;2.03;;;;;;;;;;4991333;28;20026;-69
2022/09/06 10:29:04;;;;;;;4.68;1.88;;;;;;;;;;4991197;28;20122;-68
2022/09/06 10:31:44;;;;;;;4.40;1.95;;;;;;;;;;4992624;28;20121;-69
2022/09/06 10:34:11;;;;;;;9.33;2.80;;;;;;;;;;4992578;28;20076;-68
2022/09/06 10:36:40;;;;;;;6.72;2.83;;;;;;;;;;4993698;28;20018;-69
2022/09/06 10:39:23;;;;;;;6.28;1.98;;;;;;;;;;4994010;28;20105;-69
2022/09/06 10:42:01;;;;;;;4.55;1.98;;;;;;;;;;4992372;28;20030;-69
2022/09/06 10:44:44;;;;;;;4.32;2.22;;;;;;;;;;4993736;28;20019;-67
2022/09/06 10:47:13;;;;;;;4.32;1.90;;;;;;;;;;4993624;28;20022;-68
2022/09/06 10:49:51;;;;;;;5.07;2.10;;;;;;;;;;4993742;28;20019;-68
2022/09/06 10:52:23;;;;;;;4.75;1.88;;;;;;;;;;4993834;28;20410;-69
2022/09/06 10:54:51;;;;;;;5.50;2.08;;;;;;;;;;4994507;28;20081;-67
2022/09/06 10:57:32;;;;;;;6.68;2.45;;;;;;;;;;4997648;28;20026;-67
2022/09/06 11:00:03;;;;;;;6.82;3.30;;;;;;;;;;4997714;28;20101;-67
2022/09/06 11:02:31;;;;;;;6.28;3.03;;;;;;;;;;4997688;28;20457;-68
2022/09/06 11:05:02;;;;;;;5.38;2.75;;;;;;;;;;4997251;28;20057;-68
2022/09/06 11:07:30;;;;;;;5.63;2.67;;;;;;;;;;4997734;28;20019;-68
2022/09/06 11:10:03;;;;;;;4.32;2.45;;;;;;;;;;4997380;28;20034;-67
2022/09/06 11:12:34;;;;;;;7.68;2.60;;;;;;;;;;4997286;28;20026;-68
2022/09/06 11:15:03;;;;;;;5.10;3.00;;;;;;;;;;4997384;28;20027;-68
2022/09/06 11:17:40;;;;;;;6.55;2.70;;;;;;;;;;4997236;28;20057;-68
2022/09/06 11:20:19;;;;;;;7.57;2.78;;;;;;;;;;4997588;28;20061;-69
2022/09/06 11:22:46;;;;;;;6.45;2.85;;;;;;;;;;4997185;28;20061;-68
2022/09/06 11:25:26;;;;;;;6.60;2.80;;;;;;;;;;4997154;28;20018;-68
2022/09/06 11:28:00;;;;;;;6.05;2.83;;;;;;;;;;4995860;28;20042;-68
2022/09/06 11:30:29;;;;;;;6.03;2.08;;;;;;;;;;4996939;28;20034;-69
2022/09/06 11:33:09;;;;;;;4.32;2.00;;;;;;;;;;4995794;28;20030;-69
2022/09/06 11:35:36;;;;;;;7.63;2.42;;;;;;;;;;4997247;28;20410;-69
2022/09/06 11:38:19;;;;;;;4.57;2.10;;;;;;;;;;4997202;28;20029;-68
2022/09/06 11:41:04;;;;;;;5.90;1.83;;;;;;;;;;4996989;28;20150;-68
2022/09/06 11:43:49;;;;;;;5.05;2.08;;;;;;;;;;4996734;28;20517;-68
2022/09/06 11:46:34;;;;;;;5.25;2.08;;;;;;;;;;4996812;28;20105;-67
2022/09/06 11:49:01;;;;;;;2.95;1.67;;;;;;;;;;4996877;28;20120;-68
2022/09/06 11:51:46;;;;;;;3.88;1.60;;;;;;;;;;4995385;28;20434;-68
2022/09/06 11:54:16;;;;;;;5.80;1.60;;;;;;;;;;4995710;28;20113;-68
2022/09/06 11:56:47;;;;;;;3.78;1.77;;;;;;;;;;4994578;28;20022;-68
2022/09/06 11:59:22;;;;;;;4.38;1.77;;;;;;;;;;4996494;28;20029;-68
2022/09/06 12:01:55;;;;;;;4.03;1.50;;;;;;;;;;4996519;28;20542;-68
2022/09/06 12:04:23;;;;;;;7.80;1.65;;;;;;;;;;4996442;28;20027;-68
2022/09/06 12:07:08;;;;;;;5.10;1.80;;;;;;;;;;4995533;28;20094;-68
2022/09/06 12:09:45;;;;;;;5.38;2.38;;;;;;;;;;4996520;28;20097;-68
2022/09/06 12:12:32;;;;;;;4.65;2.03;;;;;;;;;;4996598;28;20506;-68
2022/09/06 12:15:18;;;;;;;4.10;2.22;;;;;;;;;;4996108;28;20101;-68
2022/09/06 12:17:46;;;;;;;4.40;1.92;;;;;;;;;;4994815;28;20490;-68
2022/09/06 12:20:33;;;;;;;4.57;1.90;;;;;;;;;;4996102;28;20023;-68
2022/09/06 12:23:00;;;;;;;4.47;2.00;;;;;;;;;;4994689;28;20030;-68
2022/09/06 12:25:37;;;;;;;4.47;2.03;;;;;;;;;;4995265;28;20038;-68
2022/09/06 12:28:05;;;;;;;7.20;2.30;;;;;;;;;;4993614;28;20031;-69
2022/09/06 12:30:38;;;;;;;5.07;1.98;;;;;;;;;;4993989;28;20022;-68
2022/09/06 12:33:11;;;;;;;5.10;2.28;;;;;;;;;;4995805;28;20031;-68
2022/09/06 12:35:38;;;;;;;5.45;2.42;;;;;;;;;;4995677;28;20050;-68
2022/09/06 12:38:06;;;;;;;5.57;2.85;;;;;;;;;;4994490;28;20030;-68
2022/09/06 12:40:40;;;;;;;3.83;2.13;;;;;;;;;;4995655;28;20033;-68
2022/09/06 12:43:09;;;;;;;5.82;2.25;;;;;;;;;;4995854;28;20387;-68
2022/09/06 12:45:42;;;;;;;6.00;2.72;;;;;;;;;;4995625;28;20042;-68
2022/09/06 12:48:10;;;;;;;3.85;2.17;;;;;;;;;;4995780;28;20101;-68
2022/09/06 12:50:38;;;;;;;5.00;2.20;;;;;;;;;;4994788;28;20376;-68
2022/09/06 12:53:21;;;;;;;5.43;2.85;;;;;;;;;;4994240;28;20022;-68
2022/09/06 12:55:48;;;;;;;6.60;2.63;;;;;;;;;;4995471;28;20022;-68
2022/09/06 12:58:16;;;;;;;5.32;2.47;;;;;;;;;;4995480;28;20390;-68
2022/09/06 13:00:53;;;;;;;7.05;2.95;;;;;;;;;;4995495;28;20533;-68
2022/09/06 13:03:20;;;;;;;4.95;2.60;;;;;;;;;;4994622;28;20084;-68
2022/09/06 13:05:47;;;;;;;6.25;2.60;;;;;;;;;;4993476;28;20522;-68
2022/09/06 13:08:18;;;;;;;5.20;2.45;;;;;;;;;;4993731;28;20026;-68
2022/09/06 13:10:45;;;;;;;;;;;;;;;;;;4992827;28;20092;-68
2022/09/06 13:13:18;;;;;;;3.33;2.25;;;;;;;;;;4993646;28;19910;-68
2022/09/06 13:15:46;;;;;;;6.57;2.80;;;;;;;;;;4992336;28;20394;-68
2022/09/06 13:18:31;;;;;;;7.57;3.03;;;;;;;;;;4993132;28;20531;-68
2022/09/06 13:21:00;;;;;;;8.38;2.58;;;;;;;;;;4993745;28;20022;-68
2022/09/06 13:23:28;;;;;;;3.92;2.40;;;;;;;;;;4994918;28;20105;-68
2022/09/06 13:25:55;;;;;;;3.53;2.47;;;;;;;;;;4994887;28;20506;-68
2022/09/06 13:28:25;;;;;;;4.72;2.30;;;;;;;;;;4994800;28;20027;-68
2022/09/06 13:31:07;;;;;;;3.45;2.35;;;;;;;;;;4994888;28;20022;-68
2022/09/06 13:33:34;;;;;;;2.75;1.83;;;;;;;;;;4994730;28;20030;-68
2022/09/06 13:36:18;;;;;;;3.75;2.33;;;;;;;;;;4994764;28;20182;-68
2022/09/06 13:38:46;;;;;;;3.95;1.75;;;;;;;;;;4993404;28;20023;-68
2022/09/06 13:41:25;;;;;;;5.80;2.00;;;;;;;;;;4994570;28;20022;-68
2022/09/06 13:44:10;;;;;;;4.10;2.08;;;;;;;;;;4994472;28;20026;-68
2022/09/06 13:46:38;;;;;;;3.30;2.00;;;;;;;;;;4993203;28;20062;-68
2022/09/06 13:49:05;;;;;;;6.72;2.20;;;;;;;;;;4994648;28;20416;-67
2022/09/06 13:51:33;;;;;;;4.65;2.05;;;;;;;;;;4994702;28;20025;-67
2022/09/06 13:54:10;;;;;;;4.45;1.98;;;;;;;;;;4993115;28;20078;-68
2022/09/06 13:56:41;;;;;;;3.65;1.67;;;;;;;;;;4994375;28;20022;-68
2022/09/06 13:59:09;;;;;;;5.50;1.88;;;;;;;;;;4994518;28;20510;-68
2022/09/06 14:01:36;;;;;;;6.07;1.70;;;;;;;;;;4994344;28;20053;-68
2022/09/06 14:04:04;;;;;;;2.97;1.50;;;;;;;;;;4994029;28;20371;-68
2022/09/06 14:06:31;;;;;;;2.35;1.50;;;;;;;;;;4992737;28;20057;-68
2022/09/06 14:08:58;;;;;;;5.15;1.95;;;;;;;;;;4994141;28;20050;-68
2022/09/06 14:11:25;;;;;;;4.18;1.70;;;;;;;;;;4994002;28;20023;-68
2022/09/06 14:13:52;;;;;;;5.28;1.70;;;;;;;;;;4992821;28;20027;-68
2022/09/06 14:16:19;;;;;;;2.55;1.60;;;;;;;;;;4994308;28;20102;-68
2022/09/06 14:18:50;;;;;;;6.53;1.80;;;;;;;;;;4993955;28;20069;-67
2022/09/06 14:21:18;;;;;;;4.10;2.00;;;;;;;;;;4993932;28;20113;-67
2022/09/06 14:23:49;;;;;;;4.45;1.77;;;;;;;;;;4993979;28;20022;-67
2022/09/06 14:26:17;;;;;;;3.97;2.03;;;;;;;;;;4992707;28;20025;-67
2022/09/06 14:28:44;;;;;;;3.85;1.85;;;;;;;;;;4993861;28;20077;-67
2022/09/06 14:31:13;;;;;;;3.33;1.88;;;;;;;;;;4993530;28;20101;-67
2022/09/06 14:33:40;;;;;;;3.45;2.28;;;;;;;;;;4993871;28;20102;-67
2022/09/06 14:36:12;;;;;;;2.97;1.65;;;;;;;;;;4993854;28;20027;-67
2022/09/06 14:38:40;;;;;;;3.65;2.33;;;;;;;;;;4992477;28;20050;-67
2022/09/06 14:41:08;;;;;;;3.53;2.03;;;;;;;;;;4993718;28;20419;-67
2022/09/06 14:43:36;;;;;;;3.28;2.28;;;;;;;;;;4993658;28;20026;-67
2022/09/06 14:46:07;;;;;;;4.82;2.72;;;;;;;;;;4993631;28;20474;-67
2022/09/06 14:48:34;;;;;;;4.18;2.53;;;;;;;;;;4993765;28;20097;-67
2022/09/06 14:51:08;;;;;;;6.25;3.00;;;;;;;;;;4993587;28;20416;-67
2022/09/06 14:53:38;;;;;;;5.78;3.00;;;;;;;;;;4993602;28;20029;-67
2022/09/06 14:56:06;;;;;;;7.77;2.87;;;;;;;;;;4993611;28;20087;-67
2022/09/06 14:58:33;;;;;;;6.20;3.40;;;;;;;;;;4993409;28;20018;-67